createdAt,value
2019-05-21T00:01:03.631Z,2.77
2019-05-21T00:03:34.752Z,3.00
2019-05-21T00:06:05.904Z,3.37
2019-05-21T00:08:37.145Z,2.60
2019-05-21T00:11:08.220Z,2.90
2019-05-21T00:13:39.331Z,3.02
2019-05-21T00:16:10.547Z,2.80
2019-05-21T00:18:41.672Z,2.83
2019-05-21T00:21:12.812Z,3.30
2019-05-21T00:23:43.870Z,3.02
2019-05-21T00:26:14.988Z,2.42
2019-05-21T00:29:22.105Z,3.02
2019-05-21T00:32:29.520Z,2.30
2019-05-21T00:35:45.952Z,3.33
2019-05-21T00:38:53.336Z,3.00
2019-05-21T00:42:01.801Z,2.75
2019-05-21T00:44:41.763Z,2.72
2019-05-21T00:47:13.644Z,3.37
2019-05-21T00:49:44.772Z,2.50
2019-05-21T00:52:15.868Z,2.17
2019-05-21T00:54:46.911Z,2.35
2019-05-21T00:57:18.030Z,2.25
2019-05-21T00:59:49.143Z,2.20
2019-05-21T01:02:20.223Z,2.30
2019-05-21T01:05:00.178Z,2.12
2019-05-21T01:07:25.381Z,2.65
2019-05-21T01:09:56.670Z,3.05
2019-05-21T01:12:28.098Z,1.85
2019-05-21T01:14:59.256Z,2.37
2019-05-21T01:17:30.298Z,1.98
2019-05-21T01:20:01.378Z,1.98
2019-05-21T01:22:32.517Z,3.00
2019-05-21T01:25:05.123Z,3.08
2019-05-21T01:27:36.294Z,2.35
2019-05-21T01:30:09.045Z,2.17
2019-05-21T01:32:40.155Z,2.00
2019-05-21T01:35:17.038Z,2.17
2019-05-21T01:40:14.383Z,1.95
2019-05-21T01:42:45.467Z,2.17
2019-05-21T01:45:16.586Z,2.22
2019-05-21T01:47:47.835Z,2.08
2019-05-21T01:50:19.078Z,2.10
2019-05-21T01:52:50.154Z,2.22
2019-05-21T01:55:21.265Z,2.15
2019-05-21T01:57:52.425Z,2.50
2019-05-21T02:00:23.660Z,2.00
2019-05-21T02:02:54.818Z,2.20
2019-05-21T02:05:33.089Z,1.92
2019-05-21T02:07:58.918Z,2.42
2019-05-21T02:10:30.082Z,1.60
2019-05-21T02:13:01.307Z,1.65
2019-05-21T02:15:32.390Z,2.10
2019-05-21T02:18:03.560Z,2.00
2019-05-21T02:20:34.799Z,2.05
2019-05-21T02:23:06.054Z,1.85
2019-05-21T02:25:37.198Z,2.10
2019-05-21T02:28:08.393Z,1.80
2019-05-21T02:30:39.518Z,2.00
2019-05-21T02:33:10.666Z,1.90
2019-05-21T02:35:53.654Z,1.75
2019-05-21T02:40:44.893Z,1.82
2019-05-21T02:43:17.003Z,1.87
2019-05-21T02:45:48.165Z,1.80
2019-05-21T02:48:19.337Z,1.70
2019-05-21T02:50:50.456Z,1.98
2019-05-21T02:53:21.460Z,2.30
2019-05-21T02:55:52.592Z,1.80
2019-05-21T02:58:23.767Z,1.50
2019-05-21T03:00:59.298Z,2.25
2019-05-21T03:03:31.979Z,2.17
2019-05-21T03:08:35.136Z,2.17
2019-05-21T03:11:06.278Z,2.37
2019-05-21T03:13:37.373Z,2.70
2019-05-21T03:16:08.555Z,2.17
2019-05-21T03:18:39.707Z,1.87
2019-05-21T03:21:10.867Z,1.77
2019-05-21T03:23:42.032Z,2.42
2019-05-21T03:26:13.212Z,2.27
2019-05-21T03:28:44.329Z,2.58
2019-05-21T03:31:15.472Z,2.27
2019-05-21T03:33:46.569Z,3.35
2019-05-21T03:36:32.831Z,2.30
2019-05-21T03:41:20.811Z,2.65
2019-05-21T03:43:53.907Z,2.20
2019-05-21T03:46:26.900Z,2.72
2019-05-21T03:48:58.046Z,2.33
2019-05-21T03:51:29.191Z,4.55
2019-05-21T03:54:00.326Z,3.98
2019-05-21T03:56:31.371Z,4.35
2019-05-21T03:59:02.491Z,3.60
2019-05-21T04:01:33.578Z,3.50
2019-05-21T04:04:04.721Z,3.22
2019-05-21T04:06:50.536Z,3.77
2019-05-21T04:09:09.168Z,3.98
2019-05-21T04:11:41.510Z,4.12
2019-05-21T04:14:14.368Z,2.87
2019-05-21T04:19:21.781Z,3.20
2019-05-21T04:24:23.386Z,4.35
2019-05-21T04:26:54.495Z,5.37
2019-05-21T04:29:25.616Z,4.78
2019-05-21T04:31:56.752Z,5.20
2019-05-21T04:34:27.877Z,4.45
2019-05-21T04:37:09.933Z,4.00
2019-05-21T04:42:02.707Z,3.05
2019-05-21T04:44:33.819Z,3.70
2019-05-21T04:47:05.008Z,2.75
2019-05-21T04:49:36.116Z,2.20
2019-05-21T04:52:07.280Z,2.30
2019-05-21T04:54:38.356Z,1.90
2019-05-21T04:57:09.509Z,1.75
2019-05-21T04:59:40.662Z,2.00
2019-05-21T05:02:11.850Z,1.62
2019-05-21T05:04:43.071Z,1.60
2019-05-21T05:07:27.549Z,1.60
2019-05-21T05:12:17.940Z,1.60
2019-05-21T05:14:49.135Z,1.82
2019-05-21T05:17:20.283Z,1.55
2019-05-21T05:19:52.462Z,2.05
2019-05-21T05:22:23.725Z,1.92
2019-05-21T05:24:54.840Z,1.60
2019-05-21T05:27:27.758Z,1.87
2019-05-21T05:32:29.309Z,1.80
2019-05-21T05:35:00.505Z,2.83
2019-05-21T05:37:43.266Z,1.67
2019-05-21T05:42:36.706Z,1.42
2019-05-21T05:45:08.378Z,2.50
2019-05-21T05:47:39.775Z,2.35
2019-05-21T05:50:19.332Z,1.90
2019-05-21T05:52:50.779Z,1.95
2019-05-21T05:55:22.046Z,1.75
2019-05-21T05:57:53.397Z,1.60
2019-05-21T06:00:24.710Z,1.92
2019-05-21T06:02:56.075Z,1.47
2019-05-21T06:05:27.345Z,1.72
2019-05-21T06:08:00.394Z,1.52
2019-05-21T06:10:33.526Z,1.42
2019-05-21T06:13:04.772Z,1.47
2019-05-21T06:15:36.022Z,1.77
2019-05-21T06:18:07.275Z,1.70
2019-05-21T06:20:38.664Z,2.27
2019-05-21T06:23:10.690Z,1.37
2019-05-21T06:25:41.887Z,2.00
2019-05-21T06:28:13.074Z,1.50
2019-05-21T06:30:44.259Z,1.30
2019-05-21T06:33:17.259Z,1.90
2019-05-21T06:35:49.685Z,1.80
2019-05-21T06:38:22.418Z,1.73
2019-05-21T06:40:53.572Z,1.75
2019-05-21T06:43:25.091Z,1.80
2019-05-21T06:45:57.787Z,1.72
2019-05-21T06:48:30.128Z,1.75
2019-05-21T06:51:01.601Z,1.90
2019-05-21T06:53:32.940Z,1.85
2019-05-21T06:56:07.385Z,1.35
2019-05-21T06:58:37.291Z,1.50
2019-05-21T07:01:08.560Z,1.35
2019-05-21T07:03:39.974Z,1.37
2019-05-21T07:06:12.293Z,1.70
2019-05-21T07:08:45.205Z,1.47
2019-05-21T07:11:21.634Z,1.30
2019-05-21T07:13:52.872Z,1.92
2019-05-21T07:19:49.632Z,1.45
2019-05-21T07:22:20.887Z,1.52
2019-05-21T07:28:03.118Z,1.30
2019-05-21T07:30:34.656Z,1.30
2019-05-21T07:33:06.753Z,1.50
2019-05-21T07:35:40.314Z,1.30
2019-05-21T07:38:13.031Z,1.25
2019-05-21T07:40:44.280Z,1.40
2019-05-21T07:43:15.615Z,1.65
2019-05-21T07:45:46.885Z,1.55
2019-05-21T07:48:18.253Z,1.95
2019-05-21T07:50:49.793Z,1.25
2019-05-21T07:53:25.607Z,1.20
2019-05-21T07:55:56.987Z,1.02
2019-05-21T07:58:28.252Z,1.50
2019-05-21T08:01:01.260Z,1.40
2019-05-21T08:06:15.219Z,1.50
2019-05-21T08:08:46.813Z,1.90
2019-05-21T08:11:18.068Z,1.22
2019-05-21T08:13:49.273Z,1.50
2019-05-21T08:16:20.570Z,1.72
2019-05-21T08:18:51.717Z,2.22
2019-05-21T08:21:22.976Z,1.80
2019-05-21T08:23:54.238Z,1.80
2019-05-21T08:26:26.970Z,1.70
2019-05-21T08:28:58.751Z,1.60
2019-05-21T08:31:31.916Z,1.40
2019-05-21T08:34:07.098Z,1.72
2019-05-21T08:39:46.380Z,1.80
2019-05-21T08:42:17.607Z,1.77
2019-05-21T08:44:52.151Z,1.87
2019-05-21T08:51:06.537Z,2.00
2019-05-21T08:53:38.911Z,2.30
2019-05-21T08:56:10.231Z,2.02
2019-05-21T08:58:48.712Z,1.50
2019-05-21T09:01:30.627Z,1.92
2019-05-21T09:04:18.795Z,2.30
2019-05-21T09:06:46.389Z,1.80
2019-05-21T09:09:25.727Z,1.82
2019-05-21T09:11:59.307Z,1.75
2019-05-21T09:14:33.407Z,1.72
2019-05-21T09:17:21.700Z,1.63
2019-05-21T09:20:14.998Z,2.33
2019-05-21T09:22:48.159Z,1.82
2019-05-21T09:25:21.568Z,2.15
2019-05-21T09:31:42.150Z,1.50
2019-05-21T09:34:13.712Z,1.65
2019-05-21T09:36:44.838Z,1.60
2019-05-21T09:39:16.177Z,1.70
2019-05-21T09:41:47.498Z,1.60
2019-05-21T09:44:18.920Z,2.12
2019-05-21T09:46:50.242Z,1.40
2019-05-21T09:49:21.652Z,1.98
2019-05-21T09:51:53.234Z,1.57
2019-05-21T09:54:24.635Z,1.82
2019-05-21T09:56:55.983Z,2.35
2019-05-21T09:59:32.476Z,1.87
2019-05-21T10:02:19.359Z,2.40
2019-05-21T10:04:52.185Z,2.10
2019-05-21T10:07:39.581Z,2.50
2019-05-21T10:10:08.903Z,2.00
2019-05-21T10:12:40.192Z,1.47
2019-05-21T10:15:11.710Z,1.90
2019-05-21T10:17:43.026Z,2.20
2019-05-21T10:20:14.462Z,1.80
2019-05-21T10:22:50.637Z,2.15
2019-05-21T10:25:18.987Z,1.90
2019-05-21T10:27:50.341Z,2.12
2019-05-21T10:30:22.034Z,1.92
2019-05-21T10:32:54.945Z,3.08
2019-05-21T10:35:26.237Z,1.35
2019-05-21T10:37:57.683Z,1.60
2019-05-21T10:40:41.792Z,1.55
2019-05-21T10:43:18.145Z,1.62
2019-05-21T10:45:52.199Z,1.25
2019-05-21T10:48:25.207Z,1.65
2019-05-21T10:50:56.797Z,2.15
2019-05-21T10:53:28.346Z,1.32
2019-05-21T10:56:01.591Z,1.15
2019-05-21T10:58:33.276Z,1.05
2019-05-21T11:01:14.081Z,2.00
2019-05-21T11:03:54.622Z,1.37
2019-05-21T11:06:27.519Z,1.50
2019-05-21T11:09:02.487Z,1.20
2019-05-21T11:11:36.875Z,1.40
2019-05-21T11:14:08.159Z,1.22
2019-05-21T11:16:39.266Z,1.75
2019-05-21T11:19:10.628Z,2.62
2019-05-21T11:21:42.273Z,2.50
2019-05-21T11:24:13.524Z,2.52
2019-05-21T11:26:53.541Z,2.92
2019-05-21T11:29:29.867Z,2.30
2019-05-21T11:35:51.114Z,1.98
2019-05-21T11:38:22.399Z,3.52
2019-05-21T11:40:59.552Z,3.55
2019-05-21T11:46:59.170Z,4.72
2019-05-21T11:49:30.469Z,3.20
2019-05-21T11:52:01.809Z,2.27
2019-05-21T11:54:35.113Z,2.20
2019-05-21T11:57:07.342Z,2.20
2019-05-21T11:59:39.641Z,1.80
2019-05-21T12:02:11.288Z,1.50
2019-05-21T12:27:56.223Z,2.33
2019-05-21T12:30:32.978Z,1.92
